Time;durP1;ratioP1;P1;durP2;ratioP2;P2;SDS_P1;SDS_P2;PMS_P1;PMS_P2;Temp;Humidity;BMP_temperature;BMP_pressure;BME280_temperature;BME280_humidity;BME280_pressure;Samples;Min_cycle;Max_cycle;Signal;HPM_P1;HPM_P2
2024/04/20 00:00:23;;;;;;;4.38;1.10;;;;;;;4.57;100.00;68895.13;5487262;26;20342;-59
2024/04/20 00:02:54;;;;;;;3.55;1.33;;;;;;;4.60;100.00;68898.03;5453220;26;20006;-58
2024/04/20 00:05:27;;;;;;;5.40;1.83;;;;;;;4.57;100.00;68892.53;5480470;26;20496;-58
2024/04/20 00:07:58;;;;;;;4.95;1.48;;;;;;;4.56;100.00;68893.38;5486326;26;20004;-58
2024/04/20 00:10:28;;;;;;;5.15;1.50;;;;;;;4.57;100.00;68897.13;5487063;26;20311;-59
2024/04/20 00:12:58;;;;;;;5.13;1.40;;;;;;;4.59;100.00;68896.28;5487449;26;20453;-58
2024/04/20 00:15:29;;;;;;;5.18;1.23;;;;;;;4.55;100.00;68892.81;5487094;26;20009;-60
2024/04/20 00:17:59;;;;;;;5.85;1.60;;;;;;;4.54;100.00;68891.63;5484492;26;20337;-59
2024/04/20 00:20:33;;;;;;;5.30;1.40;;;;;;;4.56;100.00;68893.38;5480792;26;20590;-59
2024/04/20 00:23:04;;;;;;;5.07;1.38;;;;;;;4.55;100.00;68892.81;5483584;26;20002;-60
2024/04/20 00:25:34;;;;;;;3.45;1.60;;;;;;;4.56;100.00;68899.13;5484129;26;20334;-58
2024/04/20 00:28:04;;;;;;;8.13;1.50;;;;;;;4.57;100.00;68897.13;5486799;26;20442;-59
2024/04/20 00:30:35;;;;;;;3.40;1.60;;;;;;;4.57;100.00;68894.53;5483692;26;20022;-59
2024/04/20 00:33:07;;;;;;;3.72;1.48;;;;;;;4.56;100.00;68893.94;5450359;26;20012;-59
2024/04/20 00:35:43;;;;;;;6.07;1.50;;;;;;;4.60;100.00;68900.59;5480560;26;20452;-60
2024/04/20 00:38:13;;;;;;;5.88;1.50;;;;;;;4.61;100.00;68898.59;5482819;26;20540;-59
2024/04/20 00:40:45;;;;;;;3.92;1.35;;;;;;;4.63;100.00;68908.69;5484804;26;20045;-59
2024/04/20 00:43:19;;;;;;;5.15;1.42;;;;;;;4.63;100.00;68903.50;5486617;26;20009;-59
2024/04/20 00:45:50;;;;;;;4.10;1.52;;;;;;;4.63;100.00;68898.34;5486474;26;20002;-59
2024/04/20 00:48:21;;;;;;;3.55;1.52;;;;;;;4.65;100.00;68901.25;5482732;26;20341;-59
2024/04/20 00:50:56;;;;;;;5.95;1.83;;;;;;;4.61;100.00;68904.34;5450804;26;20001;-59
2024/04/20 00:53:28;;;;;;;3.22;1.50;;;;;;;4.63;100.00;68900.94;5483740;26;20002;-59
2024/04/20 00:55:59;;;;;;;4.88;1.52;;;;;;;4.65;100.00;68905.81;5482504;26;19994;-60
2024/04/20 00:58:30;;;;;;;3.97;1.50;;;;;;;4.60;100.00;68900.03;5485594;26;19998;-59
2024/04/20 01:01:03;;;;;;;3.63;1.30;;;;;;;4.61;100.00;68896.59;5482327;26;20331;-59
2024/04/20 01:03:33;;;;;;;6.55;1.60;;;;;;;4.56;100.00;68893.94;5481738;26;20010;-59
2024/04/20 01:06:07;;;;;;;2.95;1.30;;;;;;;4.60;100.00;68897.44;5447947;26;19998;-60
2024/04/20 01:08:37;;;;;;;6.43;1.30;;;;;;;4.55;100.00;68892.22;5485081;26;20325;-59
2024/04/20 01:11:08;;;;;;;4.90;1.20;;;;;;;4.54;100.00;68896.81;5482253;26;20010;-58
2024/04/20 01:13:39;;;;;;;3.28;1.13;;;;;;;4.55;100.00;68897.97;5483973;26;20578;-59
2024/04/20 01:16:09;;;;;;;6.35;1.27;;;;;;;4.59;100.00;68896.28;5486071;26;19997;-59
2024/04/20 01:18:40;;;;;;;6.28;1.55;;;;;;;4.60;100.00;68894.88;5486308;26;20026;-59
2024/04/20 01:21:15;;;;;;;5.88;1.40;;;;;;;4.60;100.00;68895.44;5479746;26;20449;-59
2024/04/20 01:23:47;;;;;;;3.78;1.33;;;;;;;4.62;100.00;68899.75;5450962;26;20002;-59
2024/04/20 01:26:20;;;;;;;3.95;1.13;;;;;;;4.60;100.00;68900.59;5485904;26;20014;-59
2024/04/20 01:28:51;;;;;;;4.32;1.40;;;;;;;4.61;100.00;68901.78;5485806;26;20005;-59
2024/04/20 01:31:21;;;;;;;2.53;1.10;;;;;;;4.63;100.00;68903.50;5481949;26;20026;-59
2024/04/20 01:33:51;;;;;;;5.38;1.65;;;;;;;4.60;100.00;68900.59;5482304;26;20001;-59
2024/04/20 01:36:22;;;;;;;3.40;1.35;;;;;;;4.59;100.00;68896.84;5486181;26;20078;-59
2024/04/20 01:38:54;;;;;;;4.13;0.90;;;;;;;4.59;100.00;68896.28;5484114;26;19995;-58
2024/04/20 01:41:27;;;;;;;3.42;1.33;;;;;;;4.59;100.00;68899.44;5482207;26;20043;-58
2024/04/20 01:43:58;;;;;;;3.78;1.20;;;;;;;4.62;100.00;68902.34;5485164;26;19998;-60
2024/04/20 01:46:28;;;;;;;2.88;1.20;;;;;;;4.62;100.00;68900.34;5484794;26;20723;-60
2024/04/20 01:49:00;;;;;;;3.03;1.52;;;;;;;4.63;100.00;68903.50;5481276;26;20026;-59
2024/04/20 01:51:30;;;;;;;2.35;1.10;;;;;;;4.57;100.00;68899.72;5481167;26;20414;-59
2024/04/20 01:54:01;;;;;;;6.05;1.33;;;;;;;4.57;100.00;68894.53;5482947;26;20448;-59
2024/04/20 01:56:34;;;;;;;2.92;1.00;;;;;;;4.54;100.00;68888.47;5481532;26;20006;-59
2024/04/20 01:59:05;;;;;;;4.93;1.17;;;;;;;4.53;100.00;68893.06;5481826;26;20437;-59
2024/04/20 02:01:41;;;;;;;3.38;1.25;;;;;;;4.52;100.00;68886.72;5482567;26;20009;-59
2024/04/20 02:04:11;;;;;;;3.60;1.20;;;;;;;4.55;100.00;68892.22;5483278;26;20070;-59
2024/04/20 02:06:42;;;;;;;4.03;1.30;;;;;;;4.51;100.00;68887.56;5478160;26;20005;-59
2024/04/20 02:09:14;;;;;;;2.03;1.20;;;;;;;4.52;100.00;68889.31;5485258;26;19995;-59
2024/04/20 02:11:47;;;;;;;4.53;1.25;;;;;;;4.52;100.00;68891.88;5483769;26;20430;-59
2024/04/20 02:14:18;;;;;;;2.70;1.00;;;;;;;4.52;100.00;68889.31;5481458;26;20045;-59
2024/04/20 02:16:48;;;;;;;4.13;1.35;;;;;;;4.52;100.00;68893.91;5480107;26;19994;-58
2024/04/20 02:19:19;;;;;;;5.32;1.20;;;;;;;4.48;100.00;68884.66;5481093;26;20482;-59
2024/04/20 02:21:49;;;;;;;3.38;1.27;;;;;;;4.52;100.00;68894.47;5479941;26;19990;-59
2024/04/20 02:24:20;;;;;;;2.80;1.25;;;;;;;4.54;100.00;68891.03;5484642;26;20600;-59
2024/04/20 02:26:53;;;;;;;6.03;1.13;;;;;;;4.50;100.00;68886.41;5483924;26;19994;-59
2024/04/20 02:29:24;;;;;;;2.58;1.00;;;;;;;4.52;100.00;68888.72;5484440;26;20038;-59
2024/04/20 02:31:55;;;;;;;4.13;1.25;;;;;;;4.55;100.00;68889.63;5482409;26;20346;-59
2024/04/20 02:34:26;;;;;;;2.75;1.00;;;;;;;4.55;100.00;68897.38;5456243;26;20074;-58
2024/04/20 02:37:09;;;;;;;5.28;0.90;;;;;;;4.60;100.00;68900.03;5486900;26;20481;-60
2024/04/20 02:39:40;;;;;;;5.90;1.33;;;;;;;4.57;100.00;68894.53;5484786;26;20010;-59
2024/04/20 02:42:13;;;;;;;3.35;1.00;;;;;;;4.59;100.00;68898.88;5484938;26;19998;-59
2024/04/20 02:44:44;;;;;;;4.13;1.15;;;;;;;4.53;100.00;68887.31;5484938;26;20002;-59
2024/04/20 02:47:15;;;;;;;5.45;1.30;;;;;;;4.50;100.00;68889.56;5486753;26;20005;-59
2024/04/20 02:49:45;;;;;;;4.38;1.20;;;;;;;4.46;100.00;68884.34;5483730;26;20013;-59
2024/04/20 02:52:16;;;;;;;4.55;1.20;;;;;;;4.48;100.00;68884.09;5484994;26;20002;-58
2024/04/20 02:54:46;;;;;;;6.25;1.17;;;;;;;4.44;100.00;68880.00;5488142;26;20412;-59
2024/04/20 02:57:19;;;;;;;2.90;1.00;;;;;;;4.43;100.00;68880.84;5486432;26;19997;-59
2024/04/20 02:59:49;;;;;;;3.35;1.08;;;;;;;4.42;100.00;68877.69;5488249;26;20498;-58
2024/04/20 03:02:20;;;;;;;4.15;1.00;;;;;;;4.47;100.00;68880.34;5488391;26;20013;-59
2024/04/20 03:04:50;;;;;;;3.30;1.20;;;;;;;4.46;100.00;68884.94;5488049;26;20087;-59
2024/04/20 03:07:21;;;;;;;7.55;1.23;;;;;;;4.46;100.00;68881.75;5484370;26;19994;-59
2024/04/20 03:09:51;;;;;;;5.53;1.13;;;;;;;4.45;100.00;68878.03;5483335;26;20002;-58
2024/04/20 03:12:24;;;;;;;7.30;1.10;;;;;;;4.43;100.00;68883.44;5483554;26;20001;-60
2024/04/20 03:14:55;;;;;;;8.25;1.30;;;;;;;4.47;100.00;68880.94;5486051;26;20359;-50
2024/04/20 03:17:25;;;;;;;4.88;1.10;;;;;;;4.46;100.00;68884.94;5484382;26;20002;-51
2024/04/20 03:19:56;;;;;;;7.28;1.30;;;;;;;4.45;100.00;68878.59;5481555;26;20005;-51
2024/04/20 03:22:26;;;;;;;2.88;0.75;;;;;;;4.42;100.00;68877.69;5487702;26;20875;-48
2024/04/20 03:24:57;;;;;;;3.40;1.08;;;;;;;4.46;100.00;68884.94;5485832;26;20448;-49
2024/04/20 03:27:31;;;;;;;4.85;1.10;;;;;;;4.48;100.00;68884.09;5487747;26;20449;-48
2024/04/20 03:30:01;;;;;;;6.85;1.60;;;;;;;4.46;100.00;68882.34;5487585;26;20008;-47
2024/04/20 03:32:31;;;;;;;3.65;0.90;;;;;;;4.44;100.00;68877.44;5487494;26;20424;-48
2024/04/20 03:35:02;;;;;;;3.45;0.90;;;;;;;4.45;100.00;68883.75;5487636;26;20026;-49
2024/04/20 03:37:32;;;;;;;3.70;0.80;;;;;;;4.46;100.00;68879.75;5487863;26;20058;-50
2024/04/20 03:40:03;;;;;;;7.15;1.00;;;;;;;4.49;100.00;68885.81;5485874;26;20074;-48
2024/04/20 03:42:36;;;;;;;4.38;1.05;;;;;;;4.50;100.00;68884.41;5487503;26;19998;-49
2024/04/20 03:45:07;;;;;;;6.35;1.02;;;;;;;4.45;100.00;68881.19;5486458;26;20066;-48
2024/04/20 03:47:37;;;;;;;6.03;1.27;;;;;;;4.47;100.00;68883.50;5483229;26;20009;-51
2024/04/20 03:50:08;;;;;;;7.35;1.20;;;;;;;4.45;100.00;68886.34;5485408;26;20385;-48
2024/04/20 03:52:39;;;;;;;4.50;1.00;;;;;;;4.43;100.00;68878.88;5487467;26;20508;-48
2024/04/20 03:55:09;;;;;;;5.45;1.02;;;;;;;4.47;100.00;68882.91;5487705;26;20031;-59
2024/04/20 03:57:42;;;;;;;5.43;1.15;;;;;;;4.42;100.00;68877.69;5487234;26;19998;-59
2024/04/20 04:00:13;;;;;;;4.18;0.80;;;;;;;4.39;100.00;68877.38;5453331;26;20352;-59
2024/04/20 04:02:44;;;;;;;4.85;0.73;;;;;;;4.39;100.00;68872.22;5483522;26;20009;-59
2024/04/20 04:05:15;;;;;;;4.93;1.17;;;;;;;4.39;100.00;68874.19;5481310;26;20130;-58
2024/04/20 04:07:45;;;;;;;6.00;0.95;;;;;;;4.41;100.00;68876.53;5486618;26;19990;-59
2024/04/20 04:10:15;;;;;;;4.57;0.85;;;;;;;4.39;100.00;68872.22;5487321;26;20433;-59
2024/04/20 04:12:48;;;;;;;4.57;1.05;;;;;;;4.35;100.00;68872.13;5487064;26;20325;-60
2024/04/20 04:15:19;;;;;;;3.85;0.73;;;;;;;4.27;100.00;68858.28;5487091;26;20002;-59
2024/04/20 04:17:50;;;;;;;5.07;1.48;;;;;;;4.31;100.00;68865.50;5484080;26;20005;-59
2024/04/20 04:20:21;;;;;;;6.50;0.95;;;;;;;4.36;100.00;68868.13;5481224;26;19998;-59
2024/04/20 04:22:51;;;;;;;7.25;1.15;;;;;;;4.34;100.00;68866.41;5483062;26;19998;-58
2024/04/20 04:25:22;;;;;;;3.10;0.90;;;;;;;4.33;100.00;68872.97;5483045;26;19998;-58
2024/04/20 04:27:55;;;;;;;5.70;1.23;;;;;;;4.29;100.00;68858.00;5485182;26;20005;-58
2024/04/20 04:30:26;;;;;;;3.53;1.00;;;;;;;4.25;100.00;68857.97;5486993;26;20341;-59
2024/04/20 04:32:56;;;;;;;9.45;1.17;;;;;;;4.22;100.00;68853.03;5482531;26;20470;-59
2024/04/20 04:35:28;;;;;;;5.35;1.15;;;;;;;4.23;100.00;68856.22;5480226;26;20010;-59
2024/04/20 04:37:58;;;;;;;7.60;1.30;;;;;;;4.18;100.00;68853.56;5482846;26;19995;-59
2024/04/20 04:40:28;;;;;;;9.65;1.20;;;;;;;4.19;100.00;68854.72;5485221;26;20005;-59
2024/04/20 04:43:01;;;;;;;7.85;1.40;;;;;;;4.26;100.00;68856.53;5486251;26;20034;-59
2024/04/20 04:45:35;;;;;;;5.85;1.15;;;;;;;4.26;100.00;68861.72;5482604;26;19998;-60
2024/04/20 04:48:03;;;;;;;8.45;1.60;;;;;;;4.25;100.00;68855.94;5483637;26;20062;-59
2024/04/20 04:50:34;;;;;;;8.70;1.45;;;;;;;4.24;100.00;68857.38;5454365;26;20013;-47
2024/04/20 04:53:05;;;;;;;8.00;1.30;;;;;;;4.29;100.00;68858.00;5486517;26;20002;-48
2024/04/20 04:55:36;;;;;;;8.70;1.60;;;;;;;4.28;100.00;68864.00;5486304;26;20043;-59
2024/04/20 04:58:10;;;;;;;4.88;1.50;;;;;;;4.28;100.00;68864.00;5482830;26;20506;-60
2024/04/20 05:00:40;;;;;;;4.47;1.00;;;;;;;4.24;100.00;68854.81;5482205;26;20002;-59
2024/04/20 05:03:11;;;;;;;8.20;1.20;;;;;;;4.24;100.00;68859.97;5481986;26;19998;-59
2024/04/20 05:05:48;;;;;;;6.13;1.20;;;;;;;4.26;100.00;68859.13;5479868;26;20001;-59
2024/04/20 05:08:18;;;;;;;8.45;1.20;;;;;;;4.23;100.00;68859.38;5482793;26;20040;-59
2024/04/20 05:10:48;;;;;;;4.55;0.90;;;;;;;4.27;100.00;68862.84;5486298;26;19998;-59
2024/04/20 05:13:21;;;;;;;5.78;1.17;;;;;;;4.31;100.00;68862.91;5484620;26;20433;-60
2024/04/20 05:15:52;;;;;;;5.65;1.00;;;;;;;4.33;100.00;68870.41;5482000;26;20018;-59
2024/04/20 05:18:23;;;;;;;5.88;1.00;;;;;;;4.36;100.00;68873.91;5485100;26;20434;-58
2024/04/20 05:20:54;;;;;;;7.78;1.13;;;;;;;4.38;100.00;68873.06;5486285;26;20341;-59
2024/04/20 05:23:24;;;;;;;7.30;1.00;;;;;;;4.39;100.00;68877.38;5484168;26;20073;-58
2024/04/20 05:25:55;;;;;;;3.20;0.77;;;;;;;4.39;100.00;68876.78;5485860;26;20008;-59
2024/04/20 05:28:28;;;;;;;7.28;1.20;;;;;;;4.39;100.00;68877.38;5485981;26;20409;-59
2024/04/20 05:30:58;;;;;;;5.68;1.00;;;;;;;4.37;100.00;68869.88;5482311;26;19990;-59
2024/04/20 05:33:28;;;;;;;3.15;0.82;;;;;;;4.36;100.00;68871.31;5481881;26;19998;-59
2024/04/20 05:35:59;;;;;;;2.72;0.75;;;;;;;4.39;100.00;68869.03;5480526;26;19994;-59
2024/04/20 05:38:29;;;;;;;5.68;1.13;;;;;;;4.42;100.00;68880.28;5485812;26;20005;-59
2024/04/20 05:41:00;;;;;;;7.10;1.20;;;;;;;4.46;100.00;68882.34;5486047;26;19990;-59
2024/04/20 05:43:33;;;;;;;3.78;1.00;;;;;;;4.47;100.00;68885.50;5483144;26;20001;-59
2024/04/20 05:46:03;;;;;;;4.20;1.00;;;;;;;4.48;100.00;68884.66;5449893;26;19998;-60
2024/04/20 05:48:34;;;;;;;6.85;1.20;;;;;;;4.49;100.00;68888.41;5485427;26;20009;-59
2024/04/20 05:51:05;;;;;;;1.90;0.70;;;;;;;4.53;100.00;68890.47;5485477;26;20009;-59
2024/04/20 05:53:36;;;;;;;3.80;0.93;;;;;;;4.53;100.00;68890.47;5485529;26;20005;-60
2024/04/20 05:56:06;;;;;;;7.18;0.90;;;;;;;4.56;100.00;68893.38;5482950;26;19994;-59
2024/04/20 05:58:39;;;;;;;5.07;0.80;;;;;;;4.61;100.00;68899.19;5485745;26;20325;-47
2024/04/20 06:01:12;;;;;;;6.38;1.05;;;;;;;4.57;100.00;68897.69;5489002;26;20005;-48
2024/04/20 06:03:43;;;;;;;5.63;1.00;;;;;;;4.65;100.00;68898.66;5489009;26;20496;-47
2024/04/20 06:06:13;;;;;;;4.15;1.08;;;;;;;4.69;100.00;68905.31;5488899;26;20022;-49
2024/04/20 06:08:43;;;;;;;3.22;0.70;;;;;;;4.72;100.00;68913.97;5488845;26;19998;-49
2024/04/20 06:11:14;;;;;;;4.25;0.82;;;;;;;4.74;100.00;68911.09;5488887;26;19998;-48
2024/04/20 06:13:47;;;;;;;6.85;1.10;;;;;;;4.78;100.00;68915.75;5488969;26;19998;-49
2024/04/20 06:16:17;;;;;;;5.43;0.82;;;;;;;4.81;100.00;68918.66;5489283;26;19998;-48
2024/04/20 06:18:48;;;;;;;5.68;1.95;;;;;;;4.88;100.00;68924.78;5488984;26;20764;-51
2024/04/20 06:21:19;;;;;;;4.93;0.88;;;;;;;4.96;100.00;68936.09;5488968;26;20005;-48
2024/04/20 06:23:50;;;;;;;7.25;0.85;;;;;;;4.98;100.00;68938.41;5488937;26;20013;-49
2024/04/20 06:26:22;;;;;;;5.82;1.15;;;;;;;5.06;100.00;68952.88;5456575;26;20002;-46
2024/04/20 06:28:55;;;;;;;5.07;0.95;;;;;;;5.14;100.00;68958.41;5489102;26;20005;-50
2024/04/20 06:31:29;;;;;;;5.30;0.85;;;;;;;5.21;100.00;68967.16;5488434;26;20353;-47
2024/04/20 06:34:00;;;;;;;6.15;0.90;;;;;;;5.23;100.00;68968.88;5488468;26;19998;-49
2024/04/20 06:36:31;;;;;;;5.05;1.00;;;;;;;5.31;100.00;68978.19;5488287;26;20009;-50
2024/04/20 06:39:02;;;;;;;4.45;0.77;;;;;;;5.31;100.00;68978.19;5488371;26;20008;-51
2024/04/20 06:41:33;;;;;;;4.65;1.20;;;;;;;5.33;100.00;68985.09;5488558;26;20087;-52
2024/04/20 06:44:08;;;;;;;6.55;1.10;;;;;;;5.37;100.00;68982.56;5488379;26;20005;-50
2024/04/20 06:46:40;;;;;;;4.65;0.95;;;;;;;5.37;100.00;68987.16;5488234;26;20448;-51
2024/04/20 06:49:11;;;;;;;4.78;1.10;;;;;;;5.44;100.00;68989.53;5488380;26;20090;-51
2024/04/20 06:51:42;;;;;;;5.63;1.15;;;;;;;5.46;100.00;68997.63;5488415;26;20478;-47
2024/04/20 06:54:12;;;;;;;7.35;1.65;;;;;;;5.57;100.00;69004.66;5488342;26;20058;-47
2024/04/20 06:56:43;;;;;;;7.93;1.20;;;;;;;5.59;100.00;69007.00;5488276;26;20500;-47
2024/04/20 06:59:16;;;;;;;4.90;1.25;;;;;;;5.67;100.00;69018.28;5488186;26;19990;-47
2024/04/20 07:01:48;;;;;;;9.00;1.25;;;;;;;5.74;100.00;69029.59;5488381;26;20018;-49
2024/04/20 07:04:19;;;;;;;8.52;1.48;;;;;;;5.71;100.00;69020.94;5488486;26;20009;-47
2024/04/20 07:06:49;;;;;;;5.95;1.05;;;;;;;5.76;100.00;69031.34;5487842;26;20441;-48
2024/04/20 07:09:20;;;;;;;5.32;0.88;;;;;;;5.82;100.00;69035.72;5455472;26;20010;-48
2024/04/20 07:11:53;;;;;;;8.55;1.73;;;;;;;5.88;100.00;69042.69;5484131;26;20002;-49
2024/04/20 07:14:26;;;;;;;9.55;1.30;;;;;;;5.90;100.00;69042.44;5485818;26;20110;-60
2024/04/20 07:16:58;;;;;;;5.93;1.20;;;;;;;5.96;100.00;69050.84;5487840;26;20430;-47
2024/04/20 07:19:29;;;;;;;7.45;1.40;;;;;;;6.01;100.00;69059.25;5487905;26;20029;-48
2024/04/20 07:22:00;;;;;;;8.10;1.20;;;;;;;6.03;100.00;69061.59;5488140;26;20045;-50
2024/04/20 07:24:30;;;;;;;4.55;1.08;;;;;;;5.98;100.00;69055.78;5488202;26;20030;-47
2024/04/20 07:27:02;;;;;;;5.15;1.20;;;;;;;5.97;100.00;69052.00;5487744;26;19998;-48
2024/04/20 07:29:35;;;;;;;5.25;0.80;;;;;;;6.02;100.00;69057.84;5487717;26;20002;-52
2024/04/20 07:32:06;;;;;;;4.70;0.90;;;;;;;6.12;100.00;69072.06;5487629;26;19994;-48
2024/04/20 07:34:36;;;;;;;7.93;1.00;;;;;;;6.26;100.00;69082.59;5487738;26;20449;-48
2024/04/20 07:37:07;;;;;;;6.70;1.10;;;;;;;6.36;100.00;69096.22;5488113;26;20067;-48
2024/04/20 07:39:37;;;;;;;8.02;1.13;;;;;;;6.46;100.00;69110.44;5487721;26;20434;-49
2024/04/20 07:42:08;;;;;;;5.35;0.80;;;;;;;6.52;100.00;69112.25;5487605;26;20008;-49
2024/04/20 07:44:41;;;;;;;4.78;1.00;;;;;;;6.70;100.00;69134.63;5487424;26;20404;-48
2024/04/20 07:47:13;;;;;;;2.22;1.00;;;;;;;6.80;100.00;69146.25;5487563;26;20337;-47
2024/04/20 07:49:46;;;;;;;5.53;1.00;;;;;;;6.93;100.00;69163.97;5487426;26;20046;-51
2024/04/20 07:52:16;;;;;;;7.50;1.40;;;;;;;7.00;100.00;69165.78;5487372;26;20008;-46
2024/04/20 07:54:48;;;;;;;4.77;1.00;;;;;;;7.04;100.00;69167.81;5487419;26;20009;-49
2024/04/20 07:57:18;;;;;;;8.60;1.27;;;;;;;7.05;100.00;69169.00;5487624;26;20440;-49
2024/04/20 07:59:51;;;;;;;6.82;1.27;;;;;;;7.07;100.00;69176.50;5483943;26;20386;-47
2024/04/20 08:02:21;;;;;;;8.35;1.52;;;;;;;7.10;100.00;69177.41;5483500;26;20437;-50
2024/04/20 08:04:52;;;;;;;7.47;1.23;;;;;;;7.07;100.00;69176.50;5485799;26;20083;-51
2024/04/20 08:07:25;;;;;;;5.15;1.25;;;;;;;7.24;100.00;69195.69;5483662;26;20462;-52
2024/04/20 08:09:56;;;;;;;7.35;1.20;;;;;;;7.46;100.00;69220.75;5484290;26;20005;-49
2024/04/20 08:12:26;;;;;;;5.75;1.20;;;;;;;7.70;100.00;69247.50;5486877;26;19994;-51
2024/04/20 08:15:00;;;;;;;7.63;1.15;;;;;;;7.98;100.00;69282.16;5487108;26;20021;-49
2024/04/20 08:17:30;;;;;;;8.65;1.55;;;;;;;8.16;100.00;69301.94;5454671;26;20002;-48
2024/04/20 08:20:01;;;;;;;8.95;1.88;;;;;;;8.40;100.00;69329.34;5486276;26;20342;-48
2024/04/20 08:22:31;;;;;;;7.28;1.42;;;;;;;8.50;100.00;69337.81;5487115;26;20017;-51
2024/04/20 08:25:02;;;;;;;10.00;1.40;;;;;;;8.74;100.00;69365.19;5454625;26;20026;-50
2024/04/20 08:27:33;;;;;;;11.57;1.77;;;;;;;9.14;100.00;69410.66;5486905;26;19994;-50
2024/04/20 08:30:07;;;;;;;6.65;1.30;;;;;;;9.22;100.00;69420.00;5486752;26;20013;-49
2024/04/20 08:32:38;;;;;;;7.28;1.30;;;;;;;9.15;100.00;69414.44;5486652;26;19994;-50
2024/04/20 08:35:09;;;;;;;5.32;1.00;;;;;;;9.02;100.00;69394.66;5486963;26;20062;-49
2024/04/20 08:37:39;;;;;;;11.23;1.23;;;;;;;8.75;100.00;69364.34;5486706;26;20005;-48
2024/04/20 08:40:14;;;;;;;8.82;1.42;;;;;;;8.58;100.00;69344.53;5486488;26;19998;-48
2024/04/20 08:42:46;;;;;;;6.13;1.00;;;;;;;8.50;100.00;69338.41;5486557;26;20076;-48
2024/04/20 08:45:19;;;;;;;9.27;1.35;;;;;;;8.33;100.00;69319.16;5486490;26;19990;-49
2024/04/20 08:47:50;;;;;;;9.80;1.80;;;;;;;8.14;100.00;69295.00;5454119;26;20469;-50
2024/04/20 08:50:22;;;;;;;5.80;1.00;;;;;;;8.11;100.00;69291.50;5484693;26;20436;-50
2024/04/20 08:52:54;;;;;;;6.93;1.77;;;;;;;8.13;100.00;69293.84;5512696;26;20013;-50
2024/04/20 08:55:26;;;;;;;7.78;0.98;;;;;;;7.98;100.00;69276.38;5482175;26;19994;-50
2024/04/20 08:57:56;;;;;;;6.95;1.27;;;;;;;7.97;100.00;69277.81;5485580;26;20013;-49
2024/04/20 09:00:36;;;;;;;7.78;1.50;;;;;;;7.97;100.00;69275.19;5481971;26;20017;-50
2024/04/20 09:03:13;;;;;;;10.93;1.17;;;;;;;8.18;100.00;69304.88;5485152;26;20478;-47
2024/04/20 09:05:45;;;;;;;7.55;1.40;;;;;;;8.45;100.00;69335.75;5486368;26;20085;-50
2024/04/20 09:08:18;;;;;;;5.07;1.17;;;;;;;8.55;100.00;69344.22;5484458;26;20006;-51
2024/04/20 09:10:48;;;;;;;5.80;1.00;;;;;;;8.87;100.00;69377.75;5486254;26;19998;-49
2024/04/20 09:13:19;;;;;;;6.82;1.10;;;;;;;9.09;100.00;69404.81;5486110;26;19994;-46
2024/04/20 09:15:52;;;;;;;4.40;1.00;;;;;;;9.24;100.00;69419.72;5486386;26;20433;-49
2024/04/20 09:18:23;;;;;;;7.30;1.23;;;;;;;9.42;100.00;69442.72;5486078;26;20022;-50
2024/04/20 09:20:57;;;;;;;6.82;1.05;;;;;;;9.47;100.00;69445.97;5486291;26;19994;-47
2024/04/20 09:23:27;;;;;;;5.00;0.90;;;;;;;9.18;100.00;69415.31;5454251;26;19998;-47
2024/04/20 09:25:59;;;;;;;5.05;0.88;;;;;;;9.33;100.00;69431.66;5486195;26;19994;-47
2024/04/20 09:28:32;;;;;;;5.63;1.20;;;;;;;9.45;100.00;69446.22;5454174;26;20001;-49
2024/04/20 09:31:06;;;;;;;5.47;1.30;;;;;;;9.62;100.00;69465.47;5479530;26;20010;-49
2024/04/20 09:33:38;;;;;;;7.40;1.35;;;;;;;9.88;100.00;69491.44;5483361;26;20022;-47
2024/04/20 09:36:09;;;;;;;4.40;1.02;;;;;;;10.10;100.00;69519.72;5486427;26;20005;-48
2024/04/20 09:38:40;;;;;;;7.10;1.33;;;;;;;10.21;100.00;69529.34;5485658;26;20006;-47
2024/04/20 09:41:11;;;;;;;6.35;1.42;;;;;;;10.32;100.00;69542.19;5485986;26;20001;-50
2024/04/20 09:43:46;;;;;;;5.93;1.27;;;;;;;10.19;100.00;69529.06;5453755;26;19995;-47
2024/04/20 09:46:19;;;;;;;5.72;1.00;;;;;;;9.90;100.00;69496.97;5485579;26;19998;-48
2024/04/20 09:48:51;;;;;;;5.53;1.40;;;;;;;9.76;100.00;69481.22;5485752;26;19998;-47
2024/04/20 09:51:25;;;;;;;4.25;0.90;;;;;;;9.61;100.00;69464.31;5486017;26;19994;-49
2024/04/20 09:53:58;;;;;;;4.95;0.90;;;;;;;9.67;100.00;69468.09;5481496;26;19994;-51
2024/04/20 09:56:30;;;;;;;4.35;0.90;;;;;;;9.85;100.00;69491.13;5482857;26;20005;-49
2024/04/20 09:59:03;;;;;;;4.03;1.15;;;;;;;9.78;100.00;69483.53;5483781;26;20075;-51
2024/04/20 10:01:37;;;;;;;5.45;0.98;;;;;;;10.00;100.00;69504.84;5481356;26;21045;-48
2024/04/20 10:04:09;;;;;;;4.40;1.10;;;;;;;10.14;100.00;69526.38;5485106;26;20010;-60
2024/04/20 10:06:41;;;;;;;5.32;1.15;;;;;;;10.21;100.00;69528.75;5451699;26;20001;-58
2024/04/20 10:09:12;;;;;;;5.03;0.83;;;;;;;10.20;100.00;69530.19;5481099;26;20002;-60
2024/04/20 10:11:44;;;;;;;6.30;1.20;;;;;;;10.13;100.00;69523.22;5483202;26;20071;-60
2024/04/20 10:14:14;;;;;;;6.50;1.30;;;;;;;9.97;100.00;69505.13;5481921;26;20471;-60
2024/04/20 10:16:48;;;;;;;8.00;1.80;;;;;;;10.03;100.00;69513.56;5480757;26;19990;-60
2024/04/20 10:19:19;;;;;;;7.47;1.33;;;;;;;10.10;100.00;69519.72;5484020;26;20456;-60
2024/04/20 10:21:49;;;;;;;9.07;1.55;;;;;;;10.49;100.00;69563.50;5479288;26;20030;-61
2024/04/20 10:24:20;;;;;;;7.13;1.50;;;;;;;10.76;100.00;69594.41;5483306;26;20024;-60
2024/04/20 10:26:56;;;;;;;7.00;1.65;;;;;;;11.12;100.00;69634.69;5484986;26;20016;-60
2024/04/20 10:29:28;;;;;;;7.75;1.20;;;;;;;11.20;100.00;69640.84;5485035;26;20028;-62
2024/04/20 10:32:02;;;;;;;6.32;1.25;;;;;;;11.27;100.00;69644.38;5485023;26;19994;-61
2024/04/20 10:34:32;;;;;;;8.20;1.05;;;;;;;11.12;100.00;69632.09;5484858;26;20352;-61
2024/04/20 10:37:03;;;;;;;7.60;1.55;;;;;;;10.99;100.00;69615.47;5484496;26;20009;-61
2024/04/20 10:39:34;;;;;;;6.72;1.10;;;;;;;10.82;100.00;69600.84;5484585;26;20060;-61
2024/04/20 10:42:10;;;;;;;4.85;1.10;;;;;;;10.92;100.00;69604.09;5450294;26;20002;-60
2024/04/20 10:44:41;;;;;;;4.60;1.10;;;;;;;10.85;100.00;69601.72;5486446;26;20477;-60
2024/04/20 10:47:21;;;;;;;7.07;1.45;;;;;;;11.18;100.00;69639.09;5488446;26;20405;-61
2024/04/20 10:49:54;;;;;;;6.47;1.58;;;;;;;11.55;100.00;69683.16;5483747;26;20017;-61
2024/04/20 10:52:26;;;;;;;10.20;1.17;;;;;;;11.76;100.00;69709.72;5483513;26;19994;-60
2024/04/20 10:54:57;;;;;;;5.10;1.15;;;;;;;11.77;100.00;69708.28;5483876;26;19994;-60
2024/04/20 10:57:28;;;;;;;8.35;1.45;;;;;;;11.90;100.00;69725.50;5481614;26;20000;-60
2024/04/20 10:59:58;;;;;;;7.80;1.40;;;;;;;11.63;100.00;69693.09;5484132;26;20009;-60
2024/04/20 11:02:31;;;;;;;7.15;1.65;;;;;;;11.86;100.00;69716.16;5487655;26;20009;-60
2024/04/20 11:05:02;;;;;;;10.05;1.50;;;;;;;11.81;100.00;69707.72;5483173;26;20002;-60
2024/04/20 11:07:32;;;;;;;7.50;1.33;;;;;;;12.00;100.00;69737.78;5484939;26;20021;-61
2024/04/20 11:10:03;;;;;;;7.68;1.20;;;;;;;12.16;100.00;69752.69;5485380;26;20041;-60
2024/04/20 11:12:35;;;;;;;9.55;1.52;;;;;;;12.19;100.00;69753.59;5482923;26;20708;-61
2024/04/20 11:15:09;;;;;;;8.35;1.60;;;;;;;12.23;100.00;69755.06;5487828;26;20002;-60
2024/04/20 11:17:42;;;;;;;7.07;1.45;;;;;;;11.55;100.00;69678.53;5487976;26;19998;-61
2024/04/20 11:20:13;;;;;;;7.45;1.40;;;;;;;11.12;100.00;69632.66;5484367;26;19998;-61
2024/04/20 11:22:43;;;;;;;8.00;1.67;;;;;;;11.01;100.00;69624.47;5483807;26;19998;-61
2024/04/20 11:25:14;;;;;;;5.70;0.98;;;;;;;10.73;100.00;69587.72;5483843;26;20450;-60
2024/04/20 11:27:49;;;;;;;4.45;0.77;;;;;;;10.49;100.00;69563.50;5484120;26;20006;-60
2024/04/20 11:30:20;;;;;;;5.90;1.00;;;;;;;10.45;100.00;69564.63;5487919;26;20005;-60
2024/04/20 11:33:01;;;;;;;7.53;1.65;;;;;;;10.48;100.00;69562.91;5488117;26;19994;-60
2024/04/20 11:35:34;;;;;;;8.32;1.13;;;;;;;10.43;100.00;69556.47;5455332;26;20449;-60
2024/04/20 11:38:05;;;;;;;5.50;1.10;;;;;;;10.65;100.00;69582.16;5487243;26;20449;-60
2024/04/20 11:40:36;;;;;;;4.88;1.08;;;;;;;10.63;100.00;69577.22;5483569;26;20449;-59
2024/04/20 11:43:06;;;;;;;4.25;0.88;;;;;;;10.61;100.00;69576.91;5485031;26;20005;-59
2024/04/20 11:45:37;;;;;;;5.45;1.00;;;;;;;10.57;100.00;69570.22;5487691;26;20009;-60
2024/04/20 11:48:10;;;;;;;4.13;0.93;;;;;;;10.70;100.00;69589.44;5488285;26;19997;-60
2024/04/20 11:50:44;;;;;;;5.93;0.80;;;;;;;10.94;100.00;69614.84;5487332;26;20078;-61